createdAt,value
2018-12-15T00:00:13.830Z,2.10
2018-12-15T00:02:41.681Z,2.10
2018-12-15T00:05:09.498Z,2.10
2018-12-15T00:07:37.329Z,2.10
2018-12-15T00:10:05.752Z,2.10
2018-12-15T00:12:33.439Z,2.10
2018-12-15T00:15:01.619Z,2.00
2018-12-15T00:17:29.385Z,1.90
2018-12-15T00:19:57.140Z,1.70
2018-12-15T00:22:24.947Z,1.70
2018-12-15T00:24:52.710Z,1.80
2018-12-15T00:27:20.451Z,2.00
2018-12-15T00:29:49.294Z,2.20
2018-12-15T00:32:17.152Z,2.20
2018-12-15T00:34:44.934Z,2.10
2018-12-15T00:37:12.699Z,2.20
2018-12-15T00:39:40.769Z,2.20
2018-12-15T00:42:08.658Z,2.20
2018-12-15T00:44:36.354Z,4.50
2018-12-15T00:47:05.141Z,2.20
2018-12-15T00:49:32.980Z,2.10
2018-12-15T00:52:00.717Z,2.00
2018-12-15T00:54:28.490Z,2.00
2018-12-15T00:56:56.207Z,1.90
2018-12-15T00:59:23.942Z,1.80
2018-12-15T01:01:52.007Z,1.90
2018-12-15T01:04:19.792Z,1.90
2018-12-15T01:06:48.665Z,1.90
2018-12-15T01:09:16.432Z,2.00
2018-12-15T01:11:44.188Z,2.00
2018-12-15T01:14:12.796Z,2.10
2018-12-15T01:16:40.670Z,2.10
2018-12-15T01:19:08.332Z,2.10
2018-12-15T01:21:36.122Z,2.00
2018-12-15T01:24:04.144Z,2.00
2018-12-15T01:26:31.934Z,2.00
2018-12-15T01:28:59.730Z,2.00
2018-12-15T01:31:27.523Z,2.00
2018-12-15T01:33:55.334Z,2.00
2018-12-15T01:36:23.176Z,2.00
2018-12-15T01:38:50.908Z,2.00
2018-12-15T01:41:18.683Z,2.10
2018-12-15T01:43:46.451Z,2.00
2018-12-15T01:46:14.245Z,1.90
2018-12-15T01:48:42.088Z,1.90
2018-12-15T01:51:09.917Z,1.90
2018-12-15T01:53:37.645Z,1.90
2018-12-15T01:56:05.404Z,1.80
2018-12-15T01:58:33.118Z,1.90
2018-12-15T02:01:00.924Z,2.00
2018-12-15T02:03:29.428Z,1.90
2018-12-15T02:05:57.989Z,1.80
2018-12-15T02:08:25.801Z,1.80
2018-12-15T02:10:54.407Z,1.90
2018-12-15T02:13:22.172Z,2.00
2018-12-15T02:15:49.981Z,1.90
2018-12-15T02:18:17.766Z,2.10
2018-12-15T02:20:45.483Z,2.10
2018-12-15T02:23:13.170Z,2.00
2018-12-15T02:25:40.914Z,2.10
2018-12-15T02:28:09.483Z,2.10
2018-12-15T02:30:37.231Z,2.20
2018-12-15T02:33:04.977Z,2.20
2018-12-15T02:35:32.921Z,2.10
2018-12-15T02:38:00.683Z,2.10
2018-12-15T02:40:28.966Z,2.00
2018-12-15T02:42:56.688Z,2.10
2018-12-15T02:45:24.590Z,2.10
2018-12-15T02:47:52.461Z,2.10
2018-12-15T02:50:20.325Z,2.00
2018-12-15T02:52:48.783Z,2.00
2018-12-15T02:55:16.573Z,2.00
2018-12-15T02:57:44.430Z,1.90
2018-12-15T03:00:12.273Z,1.90
2018-12-15T03:02:40.000Z,2.10
2018-12-15T03:05:08.597Z,2.00
2018-12-15T03:07:36.376Z,2.00
2018-12-15T03:10:05.873Z,1.90
2018-12-15T03:12:33.587Z,1.90
2018-12-15T03:15:01.329Z,1.90
2018-12-15T03:17:29.693Z,1.90
2018-12-15T03:20:00.484Z,2.00
2018-12-15T03:22:28.480Z,2.00
2018-12-15T03:24:57.131Z,2.00
2018-12-15T03:27:25.393Z,2.00
2018-12-15T03:29:53.251Z,2.00
2018-12-15T03:32:21.089Z,2.10
2018-12-15T03:34:48.904Z,2.10
2018-12-15T03:37:16.791Z,2.00
2018-12-15T03:39:44.620Z,2.10
2018-12-15T03:42:12.451Z,2.00
2018-12-15T03:44:40.193Z,2.10
2018-12-15T03:47:08.071Z,2.00
2018-12-15T03:49:39.131Z,2.10
2018-12-15T03:52:09.764Z,2.00
2018-12-15T03:54:37.554Z,1.90
2018-12-15T03:57:05.301Z,1.90
2018-12-15T03:59:33.356Z,1.90
2018-12-15T04:02:02.205Z,1.90
2018-12-15T04:04:31.797Z,1.90
2018-12-15T04:06:59.580Z,2.00
2018-12-15T04:09:27.381Z,2.00
2018-12-15T04:11:55.551Z,2.00
2018-12-15T04:14:23.244Z,1.90
2018-12-15T04:16:50.981Z,2.00
2018-12-15T04:19:18.698Z,2.00
2018-12-15T04:21:46.494Z,2.10
2018-12-15T04:24:21.519Z,2.00
2018-12-15T04:26:49.334Z,2.00
2018-12-15T04:29:17.085Z,2.10
2018-12-15T04:31:44.880Z,1.90
2018-12-15T04:34:12.610Z,1.80
2018-12-15T04:36:40.915Z,1.70
2018-12-15T04:39:10.147Z,1.80
2018-12-15T04:41:37.827Z,1.90
2018-12-15T04:44:05.883Z,1.90
2018-12-15T04:46:33.574Z,1.80
2018-12-15T04:49:01.306Z,1.90
2018-12-15T04:51:29.042Z,1.80
2018-12-15T04:53:56.749Z,1.70
2018-12-15T04:56:24.798Z,1.60
2018-12-15T04:58:52.492Z,1.70
2018-12-15T05:01:20.261Z,1.70
2018-12-15T05:03:47.998Z,1.80
2018-12-15T05:06:16.790Z,1.70
2018-12-15T05:08:44.526Z,1.60
2018-12-15T05:11:12.919Z,1.50
2018-12-15T05:13:41.591Z,1.30
2018-12-15T05:16:09.317Z,1.40
2018-12-15T05:18:37.009Z,1.40
2018-12-15T05:21:04.682Z,1.40
2018-12-15T05:23:32.472Z,1.60
2018-12-15T05:26:00.187Z,1.50
2018-12-15T05:28:27.981Z,1.50
2018-12-15T05:30:55.770Z,1.50
2018-12-15T05:33:23.484Z,1.70
2018-12-15T05:35:51.335Z,1.50
2018-12-15T05:38:19.010Z,1.40
2018-12-15T05:40:46.787Z,1.50
2018-12-15T05:43:14.501Z,1.50
2018-12-15T05:45:42.259Z,1.30
2018-12-15T05:48:09.927Z,1.30
2018-12-15T05:50:37.701Z,1.40
2018-12-15T05:53:05.509Z,1.50
2018-12-15T05:55:33.247Z,1.70
2018-12-15T05:58:00.987Z,1.70
2018-12-15T06:00:28.617Z,1.60
2018-12-15T06:02:56.929Z,1.80
2018-12-15T06:05:24.722Z,1.80
2018-12-15T06:07:52.609Z,1.80
2018-12-15T06:10:22.102Z,1.70
2018-12-15T06:12:49.789Z,1.70
2018-12-15T06:15:17.537Z,1.70
2018-12-15T06:17:45.245Z,1.60
2018-12-15T06:20:13.006Z,1.60
2018-12-15T06:22:41.504Z,1.70
2018-12-15T06:25:09.314Z,1.80
2018-12-15T06:27:37.099Z,1.80
2018-12-15T06:30:06.760Z,1.70
2018-12-15T06:32:34.549Z,1.70
2018-12-15T06:35:02.850Z,1.70
2018-12-15T06:37:30.529Z,1.90
2018-12-15T06:39:59.090Z,1.90
2018-12-15T06:42:26.745Z,1.70
2018-12-15T06:44:54.518Z,1.70
2018-12-15T06:47:22.247Z,1.90
2018-12-15T06:49:50.090Z,1.80
2018-12-15T06:52:17.817Z,1.80
2018-12-15T06:54:46.457Z,1.90
2018-12-15T06:57:14.261Z,2.00
2018-12-15T06:59:42.090Z,1.90
2018-12-15T07:02:09.886Z,1.80
2018-12-15T07:04:37.662Z,1.80
2018-12-15T07:07:05.367Z,2.00
2018-12-15T07:09:33.097Z,1.90
2018-12-15T07:12:00.887Z,1.80
2018-12-15T07:14:28.618Z,1.90
2018-12-15T07:16:56.364Z,2.10
2018-12-15T07:19:24.130Z,2.00
2018-12-15T07:21:51.889Z,2.00
2018-12-15T07:24:19.575Z,2.00
2018-12-15T07:26:47.304Z,2.10
2018-12-15T07:29:15.097Z,2.00
2018-12-15T07:31:42.843Z,2.00
2018-12-15T07:34:10.550Z,2.00
2018-12-15T07:36:38.330Z,1.90
2018-12-15T07:39:08.302Z,2.00
2018-12-15T07:41:36.142Z,1.80
2018-12-15T07:44:03.920Z,1.60
2018-12-15T07:46:32.128Z,1.60
2018-12-15T07:48:59.896Z,1.60
2018-12-15T07:51:27.755Z,1.70
2018-12-15T07:53:55.516Z,1.70
2018-12-15T07:56:25.437Z,1.70
2018-12-15T07:58:53.217Z,1.70
2018-12-15T08:01:21.825Z,1.80
2018-12-15T08:03:49.578Z,2.00
2018-12-15T08:06:17.596Z,1.80
2018-12-15T08:08:45.298Z,1.70
2018-12-15T08:11:18.648Z,1.70
2018-12-15T08:13:47.757Z,1.70
2018-12-15T08:16:15.540Z,1.80
2018-12-15T08:18:43.421Z,1.80
2018-12-15T08:21:11.169Z,1.80
2018-12-15T08:23:38.838Z,1.90
2018-12-15T08:26:07.458Z,1.90
2018-12-15T08:28:35.194Z,2.00
2018-12-15T08:31:03.553Z,1.90
2018-12-15T08:33:31.227Z,1.90
2018-12-15T08:35:59.050Z,2.00
2018-12-15T08:38:26.808Z,2.10
2018-12-15T08:40:54.543Z,2.20
2018-12-15T08:43:22.304Z,2.10
2018-12-15T08:45:50.199Z,2.10
2018-12-15T08:48:17.966Z,2.00
2018-12-15T08:50:45.981Z,2.00
2018-12-15T08:53:13.722Z,2.00
2018-12-15T08:55:41.498Z,2.10
2018-12-15T08:58:10.008Z,2.00
2018-12-15T09:00:38.026Z,2.00
2018-12-15T09:03:06.654Z,2.10
2018-12-15T09:05:34.398Z,2.10
2018-12-15T09:08:02.353Z,2.00
2018-12-15T09:10:30.053Z,2.10
2018-12-15T09:12:57.860Z,2.20
2018-12-15T09:15:25.630Z,2.10
2018-12-15T09:17:54.181Z,2.10
2018-12-15T09:20:21.929Z,2.10
2018-12-15T09:22:49.751Z,2.10
2018-12-15T09:25:17.545Z,2.20
2018-12-15T09:27:45.277Z,2.20
2018-12-15T09:30:13.028Z,2.20
2018-12-15T09:32:40.762Z,2.10
2018-12-15T09:35:08.474Z,2.20
2018-12-15T09:37:36.285Z,2.20
2018-12-15T09:40:05.611Z,2.20
2018-12-15T09:42:33.395Z,2.30
2018-12-15T09:45:01.774Z,2.20
2018-12-15T09:47:29.512Z,2.40
2018-12-15T09:49:58.664Z,2.40
2018-12-15T09:52:27.471Z,2.30
2018-12-15T09:54:55.327Z,2.30
2018-12-15T09:57:23.080Z,2.30
2018-12-15T09:59:50.891Z,2.20
2018-12-15T10:02:18.843Z,2.10
2018-12-15T10:04:46.596Z,2.00
2018-12-15T10:07:14.350Z,2.00
2018-12-15T10:09:42.178Z,2.10
2018-12-15T10:12:09.897Z,2.10
2018-12-15T10:14:37.661Z,2.20
2018-12-15T10:17:05.832Z,2.30
2018-12-15T10:19:34.403Z,2.30
2018-12-15T10:22:02.201Z,2.30
2018-12-15T10:24:29.954Z,2.20
2018-12-15T10:26:57.800Z,2.10
2018-12-15T10:29:31.247Z,2.00
2018-12-15T10:35:01.605Z,2.10
2018-12-15T10:37:30.068Z,2.10
2018-12-15T10:39:58.581Z,2.20
2018-12-15T10:42:26.379Z,2.30
2018-12-15T10:44:54.203Z,2.30
2018-12-15T10:47:22.856Z,2.20
2018-12-15T10:49:50.688Z,2.20
2018-12-15T10:52:18.471Z,2.10
2018-12-15T10:54:46.317Z,2.20
2018-12-15T10:57:14.196Z,2.00
2018-12-15T10:59:41.914Z,2.00
2018-12-15T11:02:10.060Z,2.00
2018-12-15T11:04:38.072Z,1.80
2018-12-15T11:07:05.797Z,2.00
2018-12-15T11:09:37.428Z,2.00
2018-12-15T11:12:05.242Z,2.10
2018-12-15T11:14:33.112Z,2.20
2018-12-15T11:17:00.869Z,2.10
2018-12-15T11:19:36.925Z,2.10
2018-12-15T11:22:00.375Z,2.10
2018-12-15T11:24:28.269Z,2.10
2018-12-15T11:26:57.669Z,2.10
2018-12-15T11:29:25.461Z,2.10
2018-12-15T11:31:53.947Z,2.10
2018-12-15T11:34:21.704Z,2.10
2018-12-15T11:36:49.534Z,2.00
2018-12-15T11:39:17.294Z,2.00
2018-12-15T11:41:46.958Z,2.00
2018-12-15T11:44:14.689Z,2.20
2018-12-15T11:46:42.459Z,2.10
2018-12-15T11:49:10.190Z,2.10
2018-12-15T11:51:41.622Z,2.00
2018-12-15T11:54:09.485Z,2.10
2018-12-15T11:56:38.110Z,2.20
2018-12-15T11:59:05.851Z,2.30
2018-12-15T12:01:33.692Z,2.30
2018-12-15T12:04:01.632Z,2.30
2018-12-15T12:06:29.401Z,2.50
2018-12-15T12:08:57.187Z,2.50
2018-12-15T12:11:24.882Z,2.60
2018-12-15T12:13:52.652Z,2.60
2018-12-15T12:16:20.358Z,2.50
2018-12-15T12:18:48.103Z,2.50
2018-12-15T12:21:16.070Z,2.50
2018-12-15T12:23:43.786Z,2.40
2018-12-15T12:26:11.903Z,2.30
2018-12-15T12:28:39.652Z,2.30
2018-12-15T12:31:07.529Z,2.30
2018-12-15T12:33:35.381Z,2.40
2018-12-15T12:36:03.163Z,2.40
2018-12-15T12:38:30.999Z,2.40
2018-12-15T12:40:58.661Z,2.40
2018-12-15T12:43:26.396Z,2.40
2018-12-15T12:45:54.170Z,2.30
2018-12-15T12:48:23.577Z,2.30
2018-12-15T12:50:51.322Z,2.10
2018-12-15T12:53:19.118Z,2.20
2018-12-15T12:55:46.857Z,2.20
2018-12-15T12:58:14.721Z,2.20
2018-12-15T13:00:42.544Z,2.20
2018-12-15T13:03:10.416Z,2.20
2018-12-15T13:05:38.224Z,2.40
2018-12-15T13:08:06.690Z,2.40
2018-12-15T13:10:35.653Z,2.50
2018-12-15T13:13:04.060Z,2.50
2018-12-15T13:15:31.822Z,2.50
2018-12-15T13:17:59.565Z,2.50
2018-12-15T13:20:27.338Z,2.50
2018-12-15T13:22:55.179Z,2.40
2018-12-15T13:25:22.957Z,2.40
2018-12-15T13:27:50.743Z,2.30
2018-12-15T13:30:19.781Z,2.30
2018-12-15T13:32:47.532Z,2.30
2018-12-15T13:35:15.262Z,2.30
2018-12-15T13:37:43.015Z,2.30
2018-12-15T13:40:10.818Z,2.20
2018-12-15T13:42:38.671Z,2.20
2018-12-15T13:45:06.695Z,2.20
2018-12-15T13:47:34.529Z,2.20
2018-12-15T13:50:02.391Z,2.20
2018-12-15T13:52:30.209Z,2.10
2018-12-15T13:54:57.903Z,2.00
2018-12-15T13:57:26.578Z,1.90
2018-12-15T13:59:54.342Z,1.80
2018-12-15T14:02:22.208Z,1.90
2018-12-15T14:04:49.986Z,1.90
2018-12-15T14:07:17.744Z,2.00
2018-12-15T14:09:45.419Z,2.20
2018-12-15T14:12:13.243Z,2.20
2018-12-15T14:14:41.076Z,2.30
2018-12-15T14:17:08.781Z,2.30
2018-12-15T14:19:36.608Z,2.20
2018-12-15T14:22:05.095Z,2.30
2018-12-15T14:24:32.836Z,2.20
2018-12-15T14:27:00.606Z,2.20
2018-12-15T14:29:28.350Z,2.30
2018-12-15T14:31:56.076Z,2.30
2018-12-15T14:34:23.819Z,2.20
2018-12-15T14:36:51.499Z,2.20
2018-12-15T14:39:19.259Z,2.10
2018-12-15T14:41:47.074Z,2.10
2018-12-15T14:44:15.034Z,2.10
2018-12-15T14:46:42.775Z,2.10
2018-12-15T14:49:10.541Z,2.10
2018-12-15T14:51:38.285Z,2.20
2018-12-15T14:54:06.839Z,2.10
2018-12-15T14:56:34.606Z,2.20
2018-12-15T14:59:02.396Z,2.20
2018-12-15T15:01:30.279Z,2.20
2018-12-15T15:03:58.109Z,3.30
2018-12-15T15:06:25.973Z,2.30
2018-12-15T15:08:53.872Z,2.30
2018-12-15T15:11:22.458Z,2.20
2018-12-15T15:13:50.307Z,2.10
2018-12-15T15:16:18.873Z,2.20
2018-12-15T15:18:46.582Z,2.00
2018-12-15T15:21:14.418Z,2.10
2018-12-15T15:23:42.255Z,2.00
2018-12-15T15:26:10.095Z,2.00
2018-12-15T15:28:37.814Z,2.00
2018-12-15T15:31:05.566Z,1.80
2018-12-15T15:33:34.017Z,1.70
2018-12-15T15:36:01.719Z,1.70
2018-12-15T15:38:29.501Z,1.70
2018-12-15T15:40:57.261Z,1.80
2018-12-15T15:43:25.089Z,1.80
2018-12-15T15:45:53.703Z,1.90
2018-12-15T15:48:22.255Z,1.90
2018-12-15T15:50:50.030Z,1.90
2018-12-15T15:53:18.076Z,1.90
2018-12-15T15:55:46.978Z,1.90
2018-12-15T15:58:14.849Z,1.90
2018-12-15T16:00:43.635Z,1.80
2018-12-15T16:03:11.451Z,1.80
2018-12-15T16:05:39.198Z,1.80
2018-12-15T16:08:07.017Z,1.90
2018-12-15T16:10:35.862Z,1.90
2018-12-15T16:13:03.795Z,1.90
2018-12-15T16:15:32.378Z,1.90
2018-12-15T16:18:00.148Z,1.90
2018-12-15T16:20:27.850Z,1.90
2018-12-15T16:22:55.831Z,1.90
2018-12-15T16:25:23.595Z,1.80
2018-12-15T16:27:51.375Z,1.80
2018-12-15T16:30:19.187Z,1.80
2018-12-15T16:32:46.958Z,1.90
2018-12-15T16:35:14.806Z,2.00
2018-12-15T16:37:42.697Z,2.00
2018-12-15T16:40:10.460Z,2.00
2018-12-15T16:42:38.300Z,2.00
2018-12-15T16:45:07.684Z,1.90
2018-12-15T16:47:35.516Z,1.90
2018-12-15T16:50:06.103Z,1.80
2018-12-15T16:52:33.961Z,1.80
2018-12-15T16:55:02.499Z,1.80
2018-12-15T16:57:30.250Z,1.70
2018-12-15T16:59:58.012Z,1.80
2018-12-15T17:02:25.717Z,1.80
2018-12-15T17:04:55.177Z,1.80
2018-12-15T17:07:22.889Z,1.80
2018-12-15T17:09:50.724Z,1.80
2018-12-15T17:12:18.433Z,1.90
2018-12-15T17:14:46.122Z,1.90
2018-12-15T17:17:13.913Z,1.90
2018-12-15T17:19:41.670Z,1.80
2018-12-15T17:22:10.344Z,1.80
2018-12-15T17:24:38.041Z,1.70
2018-12-15T17:27:05.818Z,1.80
2018-12-15T17:29:33.612Z,1.80
2018-12-15T17:32:01.362Z,1.70
2018-12-15T17:34:29.146Z,1.70
2018-12-15T17:36:56.928Z,1.70
2018-12-15T17:39:24.789Z,1.60
2018-12-15T17:41:53.802Z,1.50
2018-12-15T17:44:21.524Z,1.60
2018-12-15T17:46:49.282Z,1.50
2018-12-15T17:49:17.088Z,1.60
2018-12-15T17:51:44.894Z,1.60
2018-12-15T17:54:12.617Z,1.60
2018-12-15T17:56:40.367Z,1.50
2018-12-15T17:59:08.094Z,1.50
2018-12-15T18:01:40.616Z,1.50
2018-12-15T18:04:08.346Z,1.60
2018-12-15T18:06:36.169Z,1.50
2018-12-15T18:09:06.421Z,1.50
2018-12-15T18:11:34.293Z,1.50
2018-12-15T18:14:02.068Z,1.50
2018-12-15T18:16:31.022Z,1.50
2018-12-15T18:18:58.977Z,1.40
2018-12-15T18:21:26.796Z,1.40
2018-12-15T18:23:55.523Z,1.40
2018-12-15T18:26:23.314Z,1.40
2018-12-15T18:28:52.093Z,1.30
2018-12-15T18:31:19.863Z,1.30
2018-12-15T18:33:47.602Z,1.30
2018-12-15T18:36:15.345Z,1.30
2018-12-15T18:38:43.141Z,1.30
2018-12-15T18:41:10.951Z,1.30
2018-12-15T18:43:38.634Z,1.30
2018-12-15T18:46:06.419Z,1.30
2018-12-15T18:48:34.137Z,1.10
2018-12-15T18:51:02.868Z,1.10
2018-12-15T18:53:30.588Z,1.10
2018-12-15T18:55:59.217Z,1.10
2018-12-15T18:58:28.107Z,1.30
2018-12-15T19:00:55.841Z,1.30
2018-12-15T19:03:23.737Z,1.30
2018-12-15T19:05:52.487Z,1.30
2018-12-15T19:08:20.868Z,1.30
2018-12-15T19:10:48.665Z,1.30
2018-12-15T19:13:16.399Z,1.30
2018-12-15T19:15:44.102Z,1.30
2018-12-15T19:18:11.843Z,1.30
2018-12-15T19:20:40.501Z,1.30
2018-12-15T19:23:08.265Z,1.30
2018-12-15T19:25:35.990Z,1.40
2018-12-15T19:28:03.900Z,1.30
2018-12-15T19:30:31.624Z,1.30
2018-12-15T19:32:59.416Z,1.40
2018-12-15T19:35:27.777Z,1.50
2018-12-15T19:37:55.616Z,1.50
2018-12-15T19:40:23.410Z,1.30
2018-12-15T19:42:51.142Z,1.20
2018-12-15T19:45:18.982Z,1.10
2018-12-15T19:47:46.666Z,1.00
2018-12-15T19:50:14.469Z,0.90
2018-12-15T19:52:42.266Z,0.80
2018-12-15T19:55:10.021Z,0.60
2018-12-15T19:57:37.848Z,0.60
2018-12-15T20:00:07.332Z,0.50
2018-12-15T20:02:35.224Z,0.40
2018-12-15T20:05:03.112Z,0.30
2018-12-15T20:07:30.887Z,0.20
2018-12-15T20:09:58.701Z,0.10
2018-12-15T20:12:26.429Z,0.20
2018-12-15T20:14:54.229Z,0.20
2018-12-15T20:17:22.081Z,0.10
2018-12-15T20:19:49.904Z,0.20
2018-12-15T20:22:17.666Z,0.20
2018-12-15T20:24:45.359Z,0.10
2018-12-15T20:27:13.172Z,0.00
2018-12-15T20:29:42.171Z,-0.10
2018-12-15T20:32:09.906Z,-0.20
2018-12-15T20:34:38.622Z,0.00
2018-12-15T20:37:06.398Z,0.00
2018-12-15T20:39:34.187Z,0.00
2018-12-15T20:42:02.015Z,-0.10
2018-12-15T20:44:29.755Z,-0.20
2018-12-15T20:46:57.532Z,-0.10
2018-12-15T20:49:25.313Z,0.00
2018-12-15T20:51:53.035Z,-0.10
2018-12-15T20:54:20.838Z,-0.10
2018-12-15T20:56:48.585Z,0.00
2018-12-15T20:59:16.319Z,0.00
2018-12-15T21:01:44.183Z,-0.10
2018-12-15T21:04:11.892Z,-0.20
2018-12-15T21:06:39.674Z,-0.10
2018-12-15T21:09:07.457Z,-0.30
2018-12-15T21:11:35.984Z,-0.40
2018-12-15T21:14:03.810Z,-0.40
2018-12-15T21:16:31.563Z,-0.40
2018-12-15T21:18:59.390Z,-0.30
2018-12-15T21:21:27.107Z,-0.40
2018-12-15T21:23:54.918Z,-0.50
2018-12-15T21:26:23.040Z,-0.40
2018-12-15T21:28:50.929Z,-0.30
2018-12-15T21:31:19.447Z,-0.20
2018-12-15T21:33:47.248Z,-0.30
2018-12-15T21:36:15.019Z,-0.30
2018-12-15T21:38:42.823Z,-0.30
2018-12-15T21:41:10.668Z,-0.30
2018-12-15T21:43:38.448Z,-0.30
2018-12-15T21:46:06.846Z,-0.40
2018-12-15T21:48:34.682Z,-0.40
2018-12-15T21:51:02.448Z,-0.50
2018-12-15T21:53:30.150Z,-0.50
2018-12-15T21:55:57.873Z,-0.40
2018-12-15T21:58:25.704Z,-0.40
2018-12-15T22:03:27.461Z,-0.40
2018-12-15T22:05:55.203Z,-0.40
2018-12-15T22:08:22.963Z,-0.40
2018-12-15T22:10:50.671Z,-0.60
2018-12-15T22:13:18.487Z,-0.60
2018-12-15T22:15:46.195Z,-0.50
2018-12-15T22:18:13.972Z,-0.60
2018-12-15T22:20:41.838Z,-0.70
2018-12-15T22:23:09.754Z,-0.60
2018-12-15T22:25:38.288Z,-0.50
2018-12-15T22:28:06.075Z,-0.50
2018-12-15T22:30:33.832Z,-0.40
2018-12-15T22:33:01.601Z,-0.50
2018-12-15T22:35:29.321Z,-0.50
2018-12-15T22:37:57.105Z,-0.50
2018-12-15T22:40:25.649Z,-0.40
2018-12-15T22:42:54.352Z,-0.40
2018-12-15T22:45:22.196Z,-0.40
2018-12-15T22:47:50.012Z,-0.60
2018-12-15T22:50:17.769Z,-0.60
2018-12-15T22:52:45.631Z,-0.70
2018-12-15T22:55:13.981Z,-0.50
2018-12-15T22:57:41.675Z,-0.40
2018-12-15T23:00:10.297Z,-0.40
2018-12-15T23:02:38.050Z,-0.40
2018-12-15T23:05:06.329Z,-0.40
2018-12-15T23:07:34.103Z,-0.30
2018-12-15T23:10:02.679Z,-0.20
2018-12-15T23:12:30.496Z,-0.20
2018-12-15T23:14:58.280Z,-0.20
2018-12-15T23:17:26.089Z,-0.20
2018-12-15T23:19:54.672Z,-0.20
2018-12-15T23:22:22.416Z,-0.20
2018-12-15T23:24:50.217Z,-0.20
2018-12-15T23:27:17.871Z,-0.20
2018-12-15T23:29:45.721Z,-0.20
2018-12-15T23:32:14.314Z,-0.20
2018-12-15T23:34:42.118Z,-0.30
2018-12-15T23:37:10.869Z,-0.30
2018-12-15T23:39:38.612Z,-0.30
2018-12-15T23:42:06.365Z,-0.40
2018-12-15T23:44:35.059Z,-0.20
2018-12-15T23:47:02.719Z,-0.30
2018-12-15T23:49:31.665Z,-0.30
2018-12-15T23:52:00.388Z,-0.40
2018-12-15T23:54:28.195Z,-0.30
2018-12-15T23:56:55.996Z,-0.10
2018-12-15T23:59:24.475Z,-0.10
